sensor_id;sensor_type;location;lat;lon;timestamp;pressure;altitude;pressure_sealevel;temperature;humidity
11987;BME280;6053;51.382;6.768;2022-08-19T00:01:58;100927.66;;;22.32;100.00
11987;BME280;6053;51.382;6.768;2022-08-19T00:04:30;100930.88;;;22.26;100.00
11987;BME280;6053;51.382;6.768;2022-08-19T00:07:00;100927.75;;;22.27;100.00
11987;BME280;6053;51.382;6.768;2022-08-19T00:09:29;100927.00;;;22.22;100.00
11987;BME280;6053;51.382;6.768;2022-08-19T00:11:58;100933.78;;;22.21;100.00
11987;BME280;6053;51.382;6.768;2022-08-19T00:14:28;100931.56;;;22.18;100.00
11987;BME280;6053;51.382;6.768;2022-08-19T00:16:59;100931.38;;;22.09;100.00
11987;BME280;6053;51.382;6.768;2022-08-19T00:19:30;100939.31;;;22.07;100.00
11987;BME280;6053;51.382;6.768;2022-08-19T00:21:59;100931.16;;;22.05;100.00
11987;BME280;6053;51.382;6.768;2022-08-19T00:24:27;100923.56;;;22.06;100.00
11987;BME280;6053;51.382;6.768;2022-08-19T00:26:56;100928.34;;;22.05;100.00
11987;BME280;6053;51.382;6.768;2022-08-19T00:29:45;100923.66;;;22.01;100.00
11987;BME280;6053;51.382;6.768;2022-08-19T00:32:19;100929.28;;;22.01;100.00
11987;BME280;6053;51.382;6.768;2022-08-19T00:34:49;100925.41;;;21.97;100.00
11987;BME280;6053;51.382;6.768;2022-08-19T00:37:19;100927.38;;;21.96;100.00
11987;BME280;6053;51.382;6.768;2022-08-19T00:39:49;100928.00;;;21.93;100.00
11987;BME280;6053;51.382;6.768;2022-08-19T00:42:20;100926.09;;;21.88;100.00
11987;BME280;6053;51.382;6.768;2022-08-19T00:44:48;100924.44;;;21.87;100.00
11987;BME280;6053;51.382;6.768;2022-08-19T00:47:17;100922.16;;;21.71;100.00
11987;BME280;6053;51.382;6.768;2022-08-19T00:49:53;100920.59;;;21.59;100.00
11987;BME280;6053;51.382;6.768;2022-08-19T00:52:26;100927.59;;;21.62;100.00
11987;BME280;6053;51.382;6.768;2022-08-19T00:54:57;100920.19;;;21.71;100.00
11987;BME280;6053;51.382;6.768;2022-08-19T00:57:31;100919.03;;;21.72;100.00
11987;BME280;6053;51.382;6.768;2022-08-19T01:00:04;100919.56;;;21.74;100.00
11987;BME280;6053;51.382;6.768;2022-08-19T01:02:33;100925.19;;;21.74;100.00
11987;BME280;6053;51.382;6.768;2022-08-19T01:05:09;100920.19;;;21.71;100.00
11987;BME280;6053;51.382;6.768;2022-08-19T01:07:39;100922.06;;;21.57;100.00
11987;BME280;6053;51.382;6.768;2022-08-19T01:10:12;100918.13;;;21.58;100.00
11987;BME280;6053;51.382;6.768;2022-08-19T01:12:41;100915.53;;;21.61;100.00
11987;BME280;6053;51.382;6.768;2022-08-19T01:15:13;100922.81;;;21.62;100.00
11987;BME280;6053;51.382;6.768;2022-08-19T01:17:42;100929.56;;;21.61;100.00
11987;BME280;6053;51.382;6.768;2022-08-19T01:20:17;100917.34;;;21.52;100.00
11987;BME280;6053;51.382;6.768;2022-08-19T01:22:50;100922.44;;;21.50;100.00
11987;BME280;6053;51.382;6.768;2022-08-19T01:25:22;100923.28;;;21.51;100.00
11987;BME280;6053;51.382;6.768;2022-08-19T01:27:52;100923.56;;;21.49;100.00
11987;BME280;6053;51.382;6.768;2022-08-19T01:30:32;100927.28;;;21.45;100.00
11987;BME280;6053;51.382;6.768;2022-08-19T01:33:02;100924.28;;;21.36;100.00
11987;BME280;6053;51.382;6.768;2022-08-19T01:35:32;100916.47;;;21.33;100.00
11987;BME280;6053;51.382;6.768;2022-08-19T01:38:08;100919.53;;;21.36;100.00
11987;BME280;6053;51.382;6.768;2022-08-19T01:40:39;100912.81;;;21.32;100.00
11987;BME280;6053;51.382;6.768;2022-08-19T01:43:09;100919.88;;;21.30;100.00
11987;BME280;6053;51.382;6.768;2022-08-19T01:45:37;100917.91;;;21.30;100.00
11987;BME280;6053;51.382;6.768;2022-08-19T01:48:07;100916.22;;;21.29;100.00
11987;BME280;6053;51.382;6.768;2022-08-19T01:50:36;100915.47;;;21.24;100.00
11987;BME280;6053;51.382;6.768;2022-08-19T01:53:09;100924.16;;;21.22;100.00
11987;BME280;6053;51.382;6.768;2022-08-19T01:55:42;100927.03;;;21.17;100.00
11987;BME280;6053;51.382;6.768;2022-08-19T01:58:13;100919.78;;;21.16;100.00
11987;BME280;6053;51.382;6.768;2022-08-19T02:00:43;100926.25;;;21.11;100.00
11987;BME280;6053;51.382;6.768;2022-08-19T02:03:12;100929.38;;;20.86;100.00
11987;BME280;6053;51.382;6.768;2022-08-19T02:05:42;100925.91;;;20.94;100.00
11987;BME280;6053;51.382;6.768;2022-08-19T02:08:12;100924.41;;;21.02;100.00
11987;BME280;6053;51.382;6.768;2022-08-19T02:10:42;100922.66;;;21.06;100.00
11987;BME280;6053;51.382;6.768;2022-08-19T02:13:12;100914.81;;;21.08;100.00
11987;BME280;6053;51.382;6.768;2022-08-19T02:15:41;100914.25;;;21.06;100.00
11987;BME280;6053;51.382;6.768;2022-08-19T02:18:09;100905.91;;;21.01;100.00
11987;BME280;6053;51.382;6.768;2022-08-19T02:20:39;100907.34;;;20.98;100.00
11987;BME280;6053;51.382;6.768;2022-08-19T02:23:11;100917.19;;;20.95;100.00
11987;BME280;6053;51.382;6.768;2022-08-19T02:25:43;100916.66;;;20.93;100.00
11987;BME280;6053;51.382;6.768;2022-08-19T02:28:12;100916.44;;;20.90;100.00
11987;BME280;6053;51.382;6.768;2022-08-19T02:30:46;100921.78;;;20.86;100.00
11987;BME280;6053;51.382;6.768;2022-08-19T02:33:16;100923.50;;;20.82;100.00
11987;BME280;6053;51.382;6.768;2022-08-19T02:35:45;100925.47;;;20.82;100.00
11987;BME280;6053;51.382;6.768;2022-08-19T02:38:15;100923.81;;;20.81;100.00
11987;BME280;6053;51.382;6.768;2022-08-19T02:40:57;100922.66;;;20.82;100.00
11987;BME280;6053;51.382;6.768;2022-08-19T02:43:27;100922.16;;;20.80;100.00
11987;BME280;6053;51.382;6.768;2022-08-19T02:46:00;100920.44;;;20.79;100.00
11987;BME280;6053;51.382;6.768;2022-08-19T02:48:29;100925.81;;;20.75;100.00
11987;BME280;6053;51.382;6.768;2022-08-19T02:51:00;100928.63;;;20.75;100.00
11987;BME280;6053;51.382;6.768;2022-08-19T02:53:30;100925.00;;;20.75;100.00
11987;BME280;6053;51.382;6.768;2022-08-19T02:55:58;100926.72;;;20.70;100.00
11987;BME280;6053;51.382;6.768;2022-08-19T02:58:27;100931.78;;;20.68;100.00
11987;BME280;6053;51.382;6.768;2022-08-19T03:00:56;100936.03;;;20.66;100.00
11987;BME280;6053;51.382;6.768;2022-08-19T03:03:25;100941.91;;;20.64;100.00
11987;BME280;6053;51.382;6.768;2022-08-19T03:06:08;100935.16;;;20.65;100.00
11987;BME280;6053;51.382;6.768;2022-08-19T03:08:40;100939.69;;;20.61;100.00
11987;BME280;6053;51.382;6.768;2022-08-19T03:11:14;100935.22;;;20.60;100.00
11987;BME280;6053;51.382;6.768;2022-08-19T03:13:43;100928.25;;;20.58;100.00
11987;BME280;6053;51.382;6.768;2022-08-19T03:16:12;100927.44;;;20.52;100.00
11987;BME280;6053;51.382;6.768;2022-08-19T03:18:41;100926.63;;;20.52;100.00
11987;BME280;6053;51.382;6.768;2022-08-19T03:21:14;100932.25;;;20.46;100.00
11987;BME280;6053;51.382;6.768;2022-08-19T03:23:44;100926.09;;;20.44;100.00
11987;BME280;6053;51.382;6.768;2022-08-19T03:26:13;100927.50;;;20.42;100.00
11987;BME280;6053;51.382;6.768;2022-08-19T03:28:43;100925.00;;;20.40;100.00
11987;BME280;6053;51.382;6.768;2022-08-19T03:31:24;100925.31;;;20.39;100.00
11987;BME280;6053;51.382;6.768;2022-08-19T03:34:13;100937.13;;;20.36;100.00
11987;BME280;6053;51.382;6.768;2022-08-19T03:36:42;100936.31;;;20.30;100.00
11987;BME280;6053;51.382;6.768;2022-08-19T03:39:13;100941.09;;;20.30;100.00
11987;BME280;6053;51.382;6.768;2022-08-19T03:41:44;100936.81;;;20.37;100.00
11987;BME280;6053;51.382;6.768;2022-08-19T03:44:17;100945.03;;;20.23;100.00
11987;BME280;6053;51.382;6.768;2022-08-19T03:46:48;100937.72;;;20.28;100.00
11987;BME280;6053;51.382;6.768;2022-08-19T03:49:19;100936.88;;;20.32;100.00
11987;BME280;6053;51.382;6.768;2022-08-19T03:51:55;100943.31;;;20.33;100.00
11987;BME280;6053;51.382;6.768;2022-08-19T03:54:26;100934.91;;;20.33;100.00
11987;BME280;6053;51.382;6.768;2022-08-19T03:56:56;100935.41;;;20.35;100.00
11987;BME280;6053;51.382;6.768;2022-08-19T03:59:28;100934.91;;;20.33;100.00
11987;BME280;6053;51.382;6.768;2022-08-19T04:02:00;100932.69;;;20.30;100.00
11987;BME280;6053;51.382;6.768;2022-08-19T04:04:29;100928.50;;;20.27;100.00
11987;BME280;6053;51.382;6.768;2022-08-19T04:06:58;100934.72;;;20.19;100.00
11987;BME280;6053;51.382;6.768;2022-08-19T04:09:27;100930.44;;;19.92;100.00
11987;BME280;6053;51.382;6.768;2022-08-19T04:11:57;100941.31;;;19.99;100.00
11987;BME280;6053;51.382;6.768;2022-08-19T04:14:28;100936.50;;;20.05;100.00
11987;BME280;6053;51.382;6.768;2022-08-19T04:16:58;100933.94;;;20.13;100.00
11987;BME280;6053;51.382;6.768;2022-08-19T04:19:29;100934.50;;;20.10;100.00
11987;BME280;6053;51.382;6.768;2022-08-19T04:21:57;100931.44;;;20.07;100.00
11987;BME280;6053;51.382;6.768;2022-08-19T04:24:27;100941.84;;;20.01;100.00
11987;BME280;6053;51.382;6.768;2022-08-19T04:26:56;100939.34;;;19.99;100.00
11987;BME280;6053;51.382;6.768;2022-08-19T04:29:25;100941.31;;;19.99;100.00
11987;BME280;6053;51.382;6.768;2022-08-19T04:31:55;100927.00;;;20.00;100.00
11987;BME280;6053;51.382;6.768;2022-08-19T04:34:27;100933.16;;;20.02;100.00
11987;BME280;6053;51.382;6.768;2022-08-19T04:36:58;100930.06;;;20.04;100.00
11987;BME280;6053;51.382;6.768;2022-08-19T04:39:30;100938.25;;;19.95;100.00
11987;BME280;6053;51.382;6.768;2022-08-19T04:42:18;100937.97;;;19.97;100.00
11987;BME280;6053;51.382;6.768;2022-08-19T04:45:05;100943.56;;;19.97;100.00
11987;BME280;6053;51.382;6.768;2022-08-19T04:47:35;100939.38;;;19.94;100.00
11987;BME280;6053;51.382;6.768;2022-08-19T04:50:24;100943.00;;;19.95;100.00
11987;BME280;6053;51.382;6.768;2022-08-19T04:52:52;100957.00;;;19.95;100.00
11987;BME280;6053;51.382;6.768;2022-08-19T04:55:24;100957.88;;;19.95;100.00
11987;BME280;6053;51.382;6.768;2022-08-19T04:57:53;100958.97;;;19.94;100.00
11987;BME280;6053;51.382;6.768;2022-08-19T05:00:22;100960.38;;;19.97;100.00
11987;BME280;6053;51.382;6.768;2022-08-19T05:02:50;100968.19;;;20.00;100.00
11987;BME280;6053;51.382;6.768;2022-08-19T05:05:19;100983.03;;;20.00;100.00
11987;BME280;6053;51.382;6.768;2022-08-19T05:07:47;100990.25;;;20.07;100.00
11987;BME280;6053;51.382;6.768;2022-08-19T05:10:16;100981.47;;;20.23;100.00
11987;BME280;6053;51.382;6.768;2022-08-19T05:12:46;100988.06;;;20.38;100.00
11987;BME280;6053;51.382;6.768;2022-08-19T05:15:14;100990.13;;;20.27;100.00
11987;BME280;6053;51.382;6.768;2022-08-19T05:17:43;100987.88;;;20.29;100.00
11987;BME280;6053;51.382;6.768;2022-08-19T05:20:31;100993.47;;;20.29;100.00
11987;BME280;6053;51.382;6.768;2022-08-19T05:23:17;101001.47;;;20.46;100.00
11987;BME280;6053;51.382;6.768;2022-08-19T05:25:49;101002.00;;;20.53;100.00
11987;BME280;6053;51.382;6.768;2022-08-19T05:28:20;101006.41;;;19.75;100.00
11987;BME280;6053;51.382;6.768;2022-08-19T05:30:48;101009.31;;;20.05;100.00
11987;BME280;6053;51.382;6.768;2022-08-19T05:33:18;101002.13;;;20.33;100.00
11987;BME280;6053;51.382;6.768;2022-08-19T05:35:47;100994.03;;;20.65;100.00
11987;BME280;6053;51.382;6.768;2022-08-19T05:38:16;101000.69;;;21.04;100.00
11987;BME280;6053;51.382;6.768;2022-08-19T05:40:45;100996.72;;;21.34;100.00
11987;BME280;6053;51.382;6.768;2022-08-19T05:43:14;100996.78;;;21.53;100.00
11987;BME280;6053;51.382;6.768;2022-08-19T05:45:44;101005.59;;;21.65;100.00
11987;BME280;6053;51.382;6.768;2022-08-19T05:48:13;100998.50;;;21.92;100.00
11987;BME280;6053;51.382;6.768;2022-08-19T05:50:42;101002.66;;;22.18;100.00
11987;BME280;6053;51.382;6.768;2022-08-19T05:53:12;101010.16;;;21.61;100.00
11987;BME280;6053;51.382;6.768;2022-08-19T05:55:43;101009.34;;;21.36;100.00
11987;BME280;6053;51.382;6.768;2022-08-19T05:58:11;101015.44;;;20.85;100.00
11987;BME280;6053;51.382;6.768;2022-08-19T06:00:42;101019.25;;;20.65;100.00
11987;BME280;6053;51.382;6.768;2022-08-19T06:03:12;101010.13;;;21.13;100.00
11987;BME280;6053;51.382;6.768;2022-08-19T06:05:41;101003.84;;;21.50;100.00
11987;BME280;6053;51.382;6.768;2022-08-19T06:08:19;100998.97;;;21.32;100.00
11987;BME280;6053;51.382;6.768;2022-08-19T06:11:17;101000.66;;;20.40;100.00
11987;BME280;6053;51.382;6.768;2022-08-19T06:13:48;101000.94;;;21.07;100.00
11987;BME280;6053;51.382;6.768;2022-08-19T06:16:26;101002.69;;;21.27;100.00
11987;BME280;6053;51.382;6.768;2022-08-19T06:18:59;100999.91;;;22.51;100.00
11987;BME280;6053;51.382;6.768;2022-08-19T06:21:30;100995.25;;;21.41;100.00
11987;BME280;6053;51.382;6.768;2022-08-19T06:23:59;100990.97;;;22.63;100.00
11987;BME280;6053;51.382;6.768;2022-08-19T06:26:28;100999.47;;;23.78;100.00
11987;BME280;6053;51.382;6.768;2022-08-19T06:28:57;101003.81;;;23.84;100.00
11987;BME280;6053;51.382;6.768;2022-08-19T06:31:27;101002.81;;;23.25;100.00
11987;BME280;6053;51.382;6.768;2022-08-19T06:33:57;101007.16;;;24.00;100.00
11987;BME280;6053;51.382;6.768;2022-08-19T06:36:29;101008.19;;;24.40;100.00
11987;BME280;6053;51.382;6.768;2022-08-19T06:39:01;100997.59;;;24.91;100.00
11987;BME280;6053;51.382;6.768;2022-08-19T06:41:32;100994.91;;;24.18;100.00
11987;BME280;6053;51.382;6.768;2022-08-19T06:44:06;101006.41;;;24.67;100.00
11987;BME280;6053;51.382;6.768;2022-08-19T06:46:40;101006.94;;;25.23;100.00
11987;BME280;6053;51.382;6.768;2022-08-19T06:49:21;101005.19;;;24.59;100.00
11987;BME280;6053;51.382;6.768;2022-08-19T06:51:50;101007.94;;;24.51;100.00
11987;BME280;6053;51.382;6.768;2022-08-19T06:54:20;101002.72;;;25.11;100.00
11987;BME280;6053;51.382;6.768;2022-08-19T06:56:49;101004.38;;;24.22;100.00
11987;BME280;6053;51.382;6.768;2022-08-19T06:59:20;101003.81;;;24.48;100.00
11987;BME280;6053;51.382;6.768;2022-08-19T07:01:52;101008.59;;;24.48;100.00
11987;BME280;6053;51.382;6.768;2022-08-19T07:04:25;101006.78;;;24.74;100.00
11987;BME280;6053;51.382;6.768;2022-08-19T07:06:59;101008.72;;;23.10;100.00
11987;BME280;6053;51.382;6.768;2022-08-19T07:09:46;101014.13;;;22.73;100.00
11987;BME280;6053;51.382;6.768;2022-08-19T07:12:28;101019.06;;;23.28;100.00
11987;BME280;6053;51.382;6.768;2022-08-19T07:14:58;101017.91;;;23.57;100.00
11987;BME280;6053;51.382;6.768;2022-08-19T07:17:27;101013.44;;;23.42;100.00
11987;BME280;6053;51.382;6.768;2022-08-19T07:19:58;101014.63;;;24.18;100.00
11987;BME280;6053;51.382;6.768;2022-08-19T07:22:33;101025.09;;;24.04;100.00
11987;BME280;6053;51.382;6.768;2022-08-19T07:25:04;101019.75;;;24.75;100.00
11987;BME280;6053;51.382;6.768;2022-08-19T07:27:33;101027.16;;;24.93;100.00
11987;BME280;6053;51.382;6.768;2022-08-19T07:30:03;101030.53;;;24.37;100.00
11987;BME280;6053;51.382;6.768;2022-08-19T07:32:32;101030.50;;;24.51;100.00
11987;BME280;6053;51.382;6.768;2022-08-19T07:35:02;101040.00;;;25.22;100.00
11987;BME280;6053;51.382;6.768;2022-08-19T07:37:32;101040.28;;;25.12;100.00
11987;BME280;6053;51.382;6.768;2022-08-19T07:40:06;101034.63;;;25.52;100.00
11987;BME280;6053;51.382;6.768;2022-08-19T07:42:34;101033.31;;;25.89;99.77
11987;BME280;6053;51.382;6.768;2022-08-19T07:45:05;101042.47;;;25.01;100.00
11987;BME280;6053;51.382;6.768;2022-08-19T07:47:34;101033.38;;;25.75;100.00
11987;BME280;6053;51.382;6.768;2022-08-19T07:50:19;101045.25;;;25.15;100.00
11987;BME280;6053;51.382;6.768;2022-08-19T07:52:49;101054.19;;;25.39;100.00
11987;BME280;6053;51.382;6.768;2022-08-19T07:55:22;101051.81;;;24.79;100.00
11987;BME280;6053;51.382;6.768;2022-08-19T07:58:10;101053.97;;;25.05;100.00
11987;BME280;6053;51.382;6.768;2022-08-19T08:00:39;101059.19;;;25.43;100.00
11987;BME280;6053;51.382;6.768;2022-08-19T08:03:07;101065.03;;;24.92;100.00
11987;BME280;6053;51.382;6.768;2022-08-19T08:05:38;101062.06;;;24.98;100.00
11987;BME280;6053;51.382;6.768;2022-08-19T08:08:24;101057.91;;;25.97;100.00
11987;BME280;6053;51.382;6.768;2022-08-19T08:11:18;101073.44;;;25.37;100.00
11987;BME280;6053;51.382;6.768;2022-08-19T08:13:49;101067.00;;;25.14;100.00
11987;BME280;6053;51.382;6.768;2022-08-19T08:16:27;101075.72;;;24.59;100.00
11987;BME280;6053;51.382;6.768;2022-08-19T08:18:58;101074.47;;;24.38;100.00
11987;BME280;6053;51.382;6.768;2022-08-19T08:21:28;101073.59;;;24.42;100.00
11987;BME280;6053;51.382;6.768;2022-08-19T08:23:57;101071.66;;;24.02;100.00
11987;BME280;6053;51.382;6.768;2022-08-19T08:26:26;101073.06;;;24.27;100.00
11987;BME280;6053;51.382;6.768;2022-08-19T08:28:57;101079.28;;;24.01;100.00
11987;BME280;6053;51.382;6.768;2022-08-19T08:31:26;101084.78;;;23.65;100.00
11987;BME280;6053;51.382;6.768;2022-08-19T08:33:55;101079.28;;;23.13;100.00
11987;BME280;6053;51.382;6.768;2022-08-19T08:36:23;101082.38;;;22.79;100.00
11987;BME280;6053;51.382;6.768;2022-08-19T08:38:54;101086.69;;;23.09;100.00
11987;BME280;6053;51.382;6.768;2022-08-19T08:41:37;101087.91;;;23.63;100.00
11987;BME280;6053;51.382;6.768;2022-08-19T08:44:17;101092.91;;;23.39;100.00
11987;BME280;6053;51.382;6.768;2022-08-19T08:46:51;101089.75;;;24.37;100.00
11987;BME280;6053;51.382;6.768;2022-08-19T08:49:33;101087.50;;;24.25;100.00
11987;BME280;6053;51.382;6.768;2022-08-19T08:52:07;101083.47;;;24.40;100.00
11987;BME280;6053;51.382;6.768;2022-08-19T08:54:42;101084.75;;;24.34;100.00
11987;BME280;6053;51.382;6.768;2022-08-19T08:57:29;101084.50;;;24.80;100.00
11987;BME280;6053;51.382;6.768;2022-08-19T09:00:10;101088.06;;;24.86;100.00
11987;BME280;6053;51.382;6.768;2022-08-19T09:02:41;101090.75;;;25.76;99.60
11987;BME280;6053;51.382;6.768;2022-08-19T09:05:11;101081.53;;;26.01;99.80
11987;BME280;6053;51.382;6.768;2022-08-19T09:07:54;101089.34;;;25.64;97.45
11987;BME280;6053;51.382;6.768;2022-08-19T09:10:33;101078.22;;;25.59;97.83
11987;BME280;6053;51.382;6.768;2022-08-19T09:13:17;101081.00;;;25.51;98.77
11987;BME280;6053;51.382;6.768;2022-08-19T09:15:55;101078.16;;;24.52;100.00
11987;BME280;6053;51.382;6.768;2022-08-19T09:18:25;101072.63;;;24.47;100.00
11987;BME280;6053;51.382;6.768;2022-08-19T09:20:55;101085.00;;;24.60;100.00
11987;BME280;6053;51.382;6.768;2022-08-19T09:23:24;101082.81;;;24.57;100.00
11987;BME280;6053;51.382;6.768;2022-08-19T09:25:54;101085.34;;;25.03;99.54
11987;BME280;6053;51.382;6.768;2022-08-19T09:28:24;101087.88;;;24.46;100.00
11987;BME280;6053;51.382;6.768;2022-08-19T09:30:53;101082.41;;;24.86;99.89
11987;BME280;6053;51.382;6.768;2022-08-19T09:33:21;101076.72;;;25.31;98.46
11987;BME280;6053;51.382;6.768;2022-08-19T09:35:50;101078.69;;;25.93;96.20
11987;BME280;6053;51.382;6.768;2022-08-19T09:38:35;101079.16;;;25.01;99.62
11987;BME280;6053;51.382;6.768;2022-08-19T09:41:15;101080.34;;;25.00;100.00
11987;BME280;6053;51.382;6.768;2022-08-19T09:43:47;101077.00;;;24.53;100.00
11987;BME280;6053;51.382;6.768;2022-08-19T09:46:16;101076.00;;;24.21;100.00
11987;BME280;6053;51.382;6.768;2022-08-19T09:48:50;101074.22;;;24.26;100.00
11987;BME280;6053;51.382;6.768;2022-08-19T09:51:24;101076.63;;;24.32;100.00
11987;BME280;6053;51.382;6.768;2022-08-19T09:53:55;101072.44;;;24.43;100.00
11987;BME280;6053;51.382;6.768;2022-08-19T09:56:32;101079.59;;;24.86;100.00
11987;BME280;6053;51.382;6.768;2022-08-19T09:59:03;101078.50;;;25.49;99.11
11987;BME280;6053;51.382;6.768;2022-08-19T10:01:32;101080.53;;;25.97;95.73
11987;BME280;6053;51.382;6.768;2022-08-19T10:04:01;101075.25;;;25.33;99.20
11987;BME280;6053;51.382;6.768;2022-08-19T10:06:47;101069.88;;;25.94;94.12
11987;BME280;6053;51.382;6.768;2022-08-19T10:09:20;101075.09;;;26.27;93.69
11987;BME280;6053;51.382;6.768;2022-08-19T10:12:03;101076.00;;;25.88;94.54
11987;BME280;6053;51.382;6.768;2022-08-19T10:14:38;101075.34;;;25.51;95.42
11987;BME280;6053;51.382;6.768;2022-08-19T10:17:06;101081.25;;;25.09;99.07
11987;BME280;6053;51.382;6.768;2022-08-19T10:19:47;101078.03;;;24.80;96.36
11987;BME280;6053;51.382;6.768;2022-08-19T10:22:22;101070.53;;;24.53;100.00
11987;BME280;6053;51.382;6.768;2022-08-19T10:24:52;101071.16;;;24.36;100.00
11987;BME280;6053;51.382;6.768;2022-08-19T10:27:22;101058.78;;;24.59;99.17
11987;BME280;6053;51.382;6.768;2022-08-19T10:29:52;101059.25;;;24.39;100.00
11987;BME280;6053;51.382;6.768;2022-08-19T10:32:21;101066.25;;;24.28;100.00
11987;BME280;6053;51.382;6.768;2022-08-19T10:35:00;101061.34;;;25.14;97.14
11987;BME280;6053;51.382;6.768;2022-08-19T10:37:32;101063.63;;;25.66;95.87
11987;BME280;6053;51.382;6.768;2022-08-19T10:40:02;101042.38;;;25.77;95.07
11987;BME280;6053;51.382;6.768;2022-08-19T10:42:33;101050.59;;;25.16;96.62
11987;BME280;6053;51.382;6.768;2022-08-19T10:45:02;101050.56;;;24.94;95.17
11987;BME280;6053;51.382;6.768;2022-08-19T10:47:30;101053.19;;;25.35;96.31
11987;BME280;6053;51.382;6.768;2022-08-19T10:49:59;101049.44;;;25.57;93.17
11987;BME280;6053;51.382;6.768;2022-08-19T10:52:48;101056.78;;;25.27;97.26
11987;BME280;6053;51.382;6.768;2022-08-19T10:55:20;101047.94;;;26.00;94.03
11987;BME280;6053;51.382;6.768;2022-08-19T10:58:13;101045.84;;;26.75;88.92
11987;BME280;6053;51.382;6.768;2022-08-19T11:00:42;101051.63;;;26.18;94.50
11987;BME280;6053;51.382;6.768;2022-08-19T11:03:11;101045.50;;;26.59;90.82
11987;BME280;6053;51.382;6.768;2022-08-19T11:05:40;101045.63;;;26.10;92.39
11987;BME280;6053;51.382;6.768;2022-08-19T11:08:09;101047.91;;;25.51;97.69
11987;BME280;6053;51.382;6.768;2022-08-19T11:10:50;101043.50;;;25.28;95.27
11987;BME280;6053;51.382;6.768;2022-08-19T11:13:22;101044.44;;;25.94;92.23
11987;BME280;6053;51.382;6.768;2022-08-19T11:15:59;101043.78;;;27.10;85.60
11987;BME280;6053;51.382;6.768;2022-08-19T11:18:35;101043.84;;;26.93;83.68
11987;BME280;6053;51.382;6.768;2022-08-19T11:21:10;101042.59;;;25.98;91.48
11987;BME280;6053;51.382;6.768;2022-08-19T11:23:39;101046.16;;;26.30;90.31
11987;BME280;6053;51.382;6.768;2022-08-19T11:26:08;101045.19;;;26.52;84.14
11987;BME280;6053;51.382;6.768;2022-08-19T11:28:37;101043.34;;;26.30;86.27
11987;BME280;6053;51.382;6.768;2022-08-19T11:31:11;101030.88;;;26.83;83.53
11987;BME280;6053;51.382;6.768;2022-08-19T11:33:40;101040.00;;;26.89;87.90
11987;BME280;6053;51.382;6.768;2022-08-19T11:36:14;101026.88;;;26.58;83.98
11987;BME280;6053;51.382;6.768;2022-08-19T11:38:44;101026.88;;;26.58;85.65
11987;BME280;6053;51.382;6.768;2022-08-19T11:41:17;101028.63;;;27.15;81.50
11987;BME280;6053;51.382;6.768;2022-08-19T11:43:47;101039.88;;;26.50;85.50
11987;BME280;6053;51.382;6.768;2022-08-19T11:46:16;101035.31;;;25.97;91.38
11987;BME280;6053;51.382;6.768;2022-08-19T11:48:45;101032.66;;;25.52;94.60
11987;BME280;6053;51.382;6.768;2022-08-19T11:51:19;101035.06;;;25.36;91.40
11987;BME280;6053;51.382;6.768;2022-08-19T11:53:49;101024.84;;;25.18;87.73
11987;BME280;6053;51.382;6.768;2022-08-19T11:56:18;101029.34;;;25.59;95.94
11987;BME280;6053;51.382;6.768;2022-08-19T11:58:48;101024.69;;;26.20;86.67
11987;BME280;6053;51.382;6.768;2022-08-19T12:01:20;101024.53;;;26.43;79.76
11987;BME280;6053;51.382;6.768;2022-08-19T12:03:50;101026.56;;;26.51;86.80
11987;BME280;6053;51.382;6.768;2022-08-19T12:06:23;101020.22;;;26.71;79.04
11987;BME280;6053;51.382;6.768;2022-08-19T12:08:52;101017.75;;;27.34;79.04
11987;BME280;6053;51.382;6.768;2022-08-19T12:11:21;101019.38;;;26.71;82.77
11987;BME280;6053;51.382;6.768;2022-08-19T12:13:51;101008.63;;;27.11;80.15
11987;BME280;6053;51.382;6.768;2022-08-19T12:16:25;101012.69;;;26.84;82.21
11987;BME280;6053;51.382;6.768;2022-08-19T12:18:55;101017.50;;;26.05;83.57
11987;BME280;6053;51.382;6.768;2022-08-19T12:21:27;101009.75;;;25.71;89.02
11987;BME280;6053;51.382;6.768;2022-08-19T12:23:57;101009.28;;;25.78;83.11
11987;BME280;6053;51.382;6.768;2022-08-19T12:26:28;101013.06;;;26.48;86.99
11987;BME280;6053;51.382;6.768;2022-08-19T12:29:00;101002.75;;;26.52;79.42
11987;BME280;6053;51.382;6.768;2022-08-19T12:31:28;101000.91;;;26.65;83.47
11987;BME280;6053;51.382;6.768;2022-08-19T12:33:58;100999.88;;;26.87;79.48
11987;BME280;6053;51.382;6.768;2022-08-19T12:36:29;101005.97;;;27.06;74.40
11987;BME280;6053;51.382;6.768;2022-08-19T12:38:58;101002.97;;;27.58;68.92
11987;BME280;6053;51.382;6.768;2022-08-19T12:41:27;101005.56;;;26.69;66.15
11987;BME280;6053;51.382;6.768;2022-08-19T12:43:56;101005.91;;;26.33;74.82
11987;BME280;6053;51.382;6.768;2022-08-19T12:46:26;100997.75;;;26.49;68.39
11987;BME280;6053;51.382;6.768;2022-08-19T12:48:55;100999.72;;;26.74;66.48
11987;BME280;6053;51.382;6.768;2022-08-19T12:51:24;100997.91;;;26.52;67.02
11987;BME280;6053;51.382;6.768;2022-08-19T12:53:54;101002.41;;;26.36;64.81
11987;BME280;6053;51.382;6.768;2022-08-19T12:56:22;101005.06;;;26.59;64.71
11987;BME280;6053;51.382;6.768;2022-08-19T12:58:51;100998.25;;;27.33;64.42
11987;BME280;6053;51.382;6.768;2022-08-19T13:01:20;100997.72;;;27.69;57.21
11987;BME280;6053;51.382;6.768;2022-08-19T13:03:51;100996.22;;;27.42;57.85
11987;BME280;6053;51.382;6.768;2022-08-19T13:06:20;100986.38;;;27.39;65.24
11987;BME280;6053;51.382;6.768;2022-08-19T13:08:49;100998.72;;;26.79;58.41
11987;BME280;6053;51.382;6.768;2022-08-19T13:11:23;100987.22;;;26.84;56.53
11987;BME280;6053;51.382;6.768;2022-08-19T13:13:53;100993.31;;;27.21;55.45
11987;BME280;6053;51.382;6.768;2022-08-19T13:16:22;100991.59;;;26.73;64.90
11987;BME280;6053;51.382;6.768;2022-08-19T13:18:52;100984.72;;;26.91;63.10